Time;durP1;ratioP1;P1;durP2;ratioP2;P2;SDS_P1;SDS_P2;PMS_P1;PMS_P2;Temp;Humidity;BMP_temperature;BMP_pressure;BME280_temperature;BME280_humidity;BME280_pressure;Samples;Min_cycle;Max_cycle;Signal;HPM_P1;HPM_P2
2023/08/02 00:00:08;;;;;;;193.07;56.37;;;;;;;;;;5053043;28;20285;-46
2023/08/02 00:02:34;;;;;;;194.40;57.25;;;;;;;;;;5051936;28;20451;-45
2023/08/02 00:05:00;;;;;;;192.53;55.10;;;;;;;;;;5053151;28;20167;-50
2023/08/02 00:07:26;;;;;;;193.93;56.37;;;;;;;;;;5052828;28;20412;-47
2023/08/02 00:09:52;;;;;;;195.60;57.87;;;;;;;;;;5052847;28;20472;-47
2023/08/02 00:12:18;;;;;;;191.97;54.73;;;;;;;;;;5053061;28;20415;-47
2023/08/02 00:14:44;;;;;;;194.27;56.00;;;;;;;;;;5052870;28;20500;-48
2023/08/02 00:17:10;;;;;;;190.30;52.80;;;;;;;;;;5051725;28;20490;-51
2023/08/02 00:19:36;;;;;;;194.37;56.77;;;;;;;;;;5052740;28;20427;-50
2023/08/02 00:22:02;;;;;;;194.37;56.10;;;;;;;;;;5052767;28;20493;-46
2023/08/02 00:24:28;;;;;;;192.93;55.20;;;;;;;;;;5052619;28;20402;-46
2023/08/02 00:26:54;;;;;;;195.32;57.10;;;;;;;;;;5046971;28;20698;-47
2023/08/02 00:29:20;;;;;;;194.80;56.92;;;;;;;;;;5052593;28;20182;-46
2023/08/02 00:31:46;;;;;;;191.67;53.70;;;;;;;;;;5050953;28;20241;-47
2023/08/02 00:34:12;;;;;;;193.05;55.08;;;;;;;;;;5052684;28;20750;-47
2023/08/02 00:36:38;;;;;;;192.40;55.07;;;;;;;;;;5052346;28;20261;-47
2023/08/02 00:39:04;;;;;;;192.80;54.33;;;;;;;;;;5052498;28;20885;-49
2023/08/02 00:41:31;;;;;;;190.50;54.10;;;;;;;;;;5052152;28;20965;-47
2023/08/02 00:43:57;;;;;;;192.95;57.10;;;;;;;;;;5052447;28;20769;-47
2023/08/02 00:46:23;;;;;;;193.75;56.38;;;;;;;;;;5052080;28;20318;-49
2023/08/02 00:48:49;;;;;;;191.87;55.30;;;;;;;;;;5049665;28;20261;-47
2023/08/02 00:51:15;;;;;;;194.38;57.35;;;;;;;;;;5051875;28;20447;-46
2023/08/02 00:53:44;;;;;;;192.30;55.70;;;;;;;;;;5052148;28;20225;-46
2023/08/02 00:56:11;;;;;;;193.15;55.38;;;;;;;;;;5044909;28;20280;-47
2023/08/02 00:58:37;;;;;;;193.68;55.53;;;;;;;;;;5050783;28;20175;-46
2023/08/02 01:01:09;;;;;;;195.65;58.13;;;;;;;;;;5051576;28;20234;-46
2023/08/02 01:03:39;;;;;;;193.77;56.30;;;;;;;;;;5051499;28;20188;-46
2023/08/02 01:06:10;;;;;;;191.90;55.45;;;;;;;;;;5051762;28;20185;-47
2023/08/02 01:08:38;;;;;;;190.50;54.05;;;;;;;;;;5051940;28;20183;-47
2023/08/02 01:11:11;;;;;;;193.55;54.88;;;;;;;;;;5051623;28;20219;-46
2023/08/02 01:13:39;;;;;;;192.45;54.97;;;;;;;;;;5050843;28;20552;-46
2023/08/02 01:16:06;;;;;;;192.30;54.90;;;;;;;;;;5051723;28;20208;-48
2023/08/02 01:18:32;;;;;;;195.05;56.90;;;;;;;;;;5052018;28;20192;-47
2023/08/02 01:20:58;;;;;;;192.38;55.25;;;;;;;;;;5051697;28;20187;-46
2023/08/02 01:23:24;;;;;;;192.90;55.67;;;;;;;;;;5051578;28;20270;-52
2023/08/02 01:25:50;;;;;;;192.27;55.28;;;;;;;;;;5051855;28;20416;-51
2023/08/02 01:28:20;;;;;;;193.07;55.28;;;;;;;;;;5050754;28;20199;-51
2023/08/02 01:30:46;;;;;;;191.88;55.05;;;;;;;;;;5051222;28;20201;-46
2023/08/02 01:33:12;;;;;;;191.45;54.50;;;;;;;;;;5051671;28;20189;-46
2023/08/02 01:35:39;;;;;;;191.93;54.03;;;;;;;;;;5045562;28;20295;-46
2023/08/02 01:38:05;;;;;;;193.23;55.08;;;;;;;;;;5044036;28;20613;-47
2023/08/02 01:40:30;;;;;;;192.87;54.93;;;;;;;;;;5050086;28;20216;-47
2023/08/02 01:42:56;;;;;;;192.77;54.83;;;;;;;;;;5051588;28;20872;-47
2023/08/02 01:45:22;;;;;;;194.90;56.67;;;;;;;;;;5051260;28;20418;-46
2023/08/02 01:47:48;;;;;;;191.97;54.47;;;;;;;;;;5051501;28;20912;-48
2023/08/02 01:50:14;;;;;;;193.40;54.80;;;;;;;;;;5051015;28;20549;-48
2023/08/02 01:52:40;;;;;;;192.53;54.40;;;;;;;;;;5051431;28;20251;-50
2023/08/02 01:55:07;;;;;;;192.47;54.70;;;;;;;;;;5050484;28;20449;-47
2023/08/02 01:57:32;;;;;;;192.05;54.30;;;;;;;;;;5051458;28;20903;-45
2023/08/02 01:59:58;;;;;;;191.90;54.23;;;;;;;;;;5050989;28;20322;-47
2023/08/02 02:02:24;;;;;;;193.20;55.17;;;;;;;;;;5051399;28;20406;-47
2023/08/02 02:04:51;;;;;;;191.67;54.23;;;;;;;;;;5051519;28;20957;-46
2023/08/02 02:07:17;;;;;;;190.75;54.03;;;;;;;;;;5051240;28;20936;-47
2023/08/02 02:09:43;;;;;;;192.80;54.85;;;;;;;;;;5050279;28;20203;-46
2023/08/02 02:12:09;;;;;;;191.87;54.00;;;;;;;;;;5051399;28;20533;-46
2023/08/02 02:14:35;;;;;;;193.00;55.17;;;;;;;;;;5051059;28;20761;-46
2023/08/02 02:17:01;;;;;;;191.13;54.13;;;;;;;;;;5051375;28;20510;-49
2023/08/02 02:19:26;;;;;;;192.43;54.13;;;;;;;;;;5051061;28;20185;-50
2023/08/02 02:21:53;;;;;;;192.20;53.90;;;;;;;;;;5051130;28;20403;-46
2023/08/02 02:24:19;;;;;;;192.88;54.60;;;;;;;;;;5050318;28;20445;-46
2023/08/02 02:26:44;;;;;;;193.50;55.57;;;;;;;;;;5051192;28;20175;-46
2023/08/02 02:29:10;;;;;;;191.97;54.00;;;;;;;;;;5051061;28;20420;-46
2023/08/02 02:31:36;;;;;;;191.77;54.13;;;;;;;;;;5050973;28;20434;-46
2023/08/02 02:34:02;;;;;;;193.07;55.20;;;;;;;;;;5051073;28;20766;-47
2023/08/02 02:36:28;;;;;;;193.25;55.13;;;;;;;;;;5050878;28;20470;-49
2023/08/02 02:38:54;;;;;;;193.00;54.23;;;;;;;;;;5051066;28;20564;-51
2023/08/02 02:41:20;;;;;;;191.83;54.53;;;;;;;;;;5048372;28;20852;-48
2023/08/02 02:43:46;;;;;;;191.77;54.60;;;;;;;;;;5050917;28;20496;-46
2023/08/02 02:46:12;;;;;;;204.17;63.50;;;;;;;;;;5047073;28;20428;-46
2023/08/02 02:48:38;;;;;;;190.00;52.83;;;;;;;;;;5050842;28;20411;-46
2023/08/02 02:51:04;;;;;;;193.20;54.73;;;;;;;;;;5050612;28;20515;-49
2023/08/02 02:53:30;;;;;;;196.30;57.80;;;;;;;;;;5051027;28;20426;-49
2023/08/02 02:55:56;;;;;;;192.13;54.70;;;;;;;;;;5045573;28;20470;-49
2023/08/02 02:58:22;;;;;;;191.27;54.87;;;;;;;;;;5047395;28;20407;-46
2023/08/02 03:00:48;;;;;;;192.23;54.60;;;;;;;;;;5052687;28;20508;-47
2023/08/02 03:03:14;;;;;;;193.27;56.23;;;;;;;;;;5054310;28;20283;-47
2023/08/02 03:05:40;;;;;;;193.15;55.17;;;;;;;;;;5053894;28;20403;-46
2023/08/02 03:08:06;;;;;;;192.10;54.87;;;;;;;;;;5049890;28;20170;-46
2023/08/02 03:10:32;;;;;;;191.65;55.72;;;;;;;;;;5053817;28;20436;-47
2023/08/02 03:12:58;;;;;;;192.57;55.67;;;;;;;;;;5054294;28;20653;-47
2023/08/02 03:15:24;;;;;;;192.57;55.37;;;;;;;;;;5052467;28;21030;-47
2023/08/02 03:17:50;;;;;;;195.15;57.47;;;;;;;;;;5053634;28;20395;-49
2023/08/02 03:20:16;;;;;;;191.83;54.80;;;;;;;;;;5052756;28;20674;-50
2023/08/02 03:22:42;;;;;;;192.40;54.80;;;;;;;;;;5054022;28;20969;-45
2023/08/02 03:25:08;;;;;;;192.40;55.17;;;;;;;;;;5053909;28;20412;-47
2023/08/02 03:27:34;;;;;;;194.18;55.20;;;;;;;;;;5053811;28;20416;-47
2023/08/02 03:30:00;;;;;;;193.43;56.87;;;;;;;;;;5053610;28;20208;-47
2023/08/02 03:32:26;;;;;;;192.65;55.28;;;;;;;;;;5053166;28;20418;-46
2023/08/02 03:34:52;;;;;;;192.00;55.03;;;;;;;;;;5053710;28;20253;-47
2023/08/02 03:37:18;;;;;;;195.10;57.70;;;;;;;;;;5053689;28;20416;-48
2023/08/02 03:39:43;;;;;;;195.13;57.63;;;;;;;;;;5049861;28;20495;-50
2023/08/02 03:42:09;;;;;;;191.40;54.70;;;;;;;;;;5053674;28;20423;-46
2023/08/02 03:44:35;;;;;;;192.57;54.90;;;;;;;;;;5053688;28;20413;-46
2023/08/02 03:47:01;;;;;;;193.13;55.47;;;;;;;;;;5053117;28;20435;-46
2023/08/02 03:49:27;;;;;;;193.70;55.77;;;;;;;;;;5053183;28;20765;-47
2023/08/02 03:51:53;;;;;;;196.87;55.80;;;;;;;;;;5053352;28;20410;-48
2023/08/02 03:54:19;;;;;;;194.10;57.10;;;;;;;;;;5053376;28;20397;-47
2023/08/02 03:56:45;;;;;;;193.60;55.40;;;;;;;;;;5053318;28;20989;-49
2023/08/02 03:59:11;;;;;;;193.07;54.77;;;;;;;;;;5046850;28;20466;-45
2023/08/02 04:01:37;;;;;;;192.17;55.67;;;;;;;;;;5052450;28;20429;-45
2023/08/02 04:04:03;;;;;;;192.77;55.00;;;;;;;;;;5053240;28;20444;-46
2023/08/02 04:06:29;;;;;;;193.80;55.90;;;;;;;;;;5052692;28;20430;-46
2023/08/02 04:08:55;;;;;;;191.83;55.20;;;;;;;;;;5052391;28;20645;-47
2023/08/02 04:11:21;;;;;;;191.07;55.00;;;;;;;;;;5052983;28;20436;-47
2023/08/02 04:13:47;;;;;;;191.87;56.20;;;;;;;;;;5046062;28;20410;-46
2023/08/02 04:16:13;;;;;;;190.40;54.27;;;;;;;;;;5052512;28;20463;-48
2023/08/02 04:18:39;;;;;;;190.70;53.70;;;;;;;;;;5052846;28;20411;-50
2023/08/02 04:21:05;;;;;;;193.03;55.70;;;;;;;;;;5052773;28;20480;-46
2023/08/02 04:23:31;;;;;;;192.33;55.87;;;;;;;;;;5052794;28;20415;-47
2023/08/02 04:25:57;;;;;;;192.90;55.55;;;;;;;;;;5052787;28;20420;-47
2023/08/02 04:28:22;;;;;;;193.03;57.07;;;;;;;;;;5052267;28;20172;-47
2023/08/02 04:30:52;;;;;;;193.20;57.00;;;;;;;;;;5052548;28;20432;-46
2023/08/02 04:33:18;;;;;;;191.45;55.13;;;;;;;;;;5052629;28;20415;-46
2023/08/02 04:35:44;;;;;;;192.18;54.95;;;;;;;;;;5052462;28;20738;-46
2023/08/02 04:38:10;;;;;;;193.73;56.07;;;;;;;;;;5047683;28;20627;-46
2023/08/02 04:40:39;;;;;;;191.00;55.17;;;;;;;;;;5059311;28;20430;-46
2023/08/02 04:43:05;;;;;;;191.45;55.92;;;;;;;;;;5052183;28;20412;-47
2023/08/02 04:45:31;;;;;;;192.47;55.53;;;;;;;;;;5052591;28;20650;-49
2023/08/02 04:47:57;;;;;;;192.30;56.37;;;;;;;;;;5052722;28;20905;-47
2023/08/02 04:50:23;;;;;;;192.67;55.97;;;;;;;;;;5052020;28;20443;-46
2023/08/02 04:52:49;;;;;;;192.77;56.17;;;;;;;;;;5052275;28;20421;-46
2023/08/02 04:55:15;;;;;;;192.77;55.97;;;;;;;;;;5052089;28;20479;-47
2023/08/02 04:57:41;;;;;;;190.23;54.38;;;;;;;;;;5051875;28;20463;-46
2023/08/02 05:00:07;;;;;;;192.67;56.00;;;;;;;;;;5051393;28;20198;-47
2023/08/02 05:02:36;;;;;;;191.23;55.60;;;;;;;;;;5051536;28;20482;-47
2023/08/02 05:05:05;;;;;;;192.82;55.45;;;;;;;;;;5051426;28;20598;-46
2023/08/02 05:07:32;;;;;;;194.10;56.70;;;;;;;;;;5051546;28;20238;-46
2023/08/02 05:09:59;;;;;;;195.02;58.53;;;;;;;;;;5049964;28;20187;-47
2023/08/02 05:12:25;;;;;;;191.43;54.92;;;;;;;;;;5051212;28;20167;-46
2023/08/02 05:14:51;;;;;;;193.93;57.27;;;;;;;;;;5051240;28;20187;-46
2023/08/02 05:17:17;;;;;;;192.57;56.40;;;;;;;;;;5051340;28;20421;-47
2023/08/02 05:19:43;;;;;;;193.07;56.40;;;;;;;;;;5051792;28;20438;-47
2023/08/02 05:22:09;;;;;;;192.52;57.45;;;;;;;;;;5051862;28;20410;-47
2023/08/02 05:24:35;;;;;;;193.00;57.10;;;;;;;;;;5051729;28;20656;-48
2023/08/02 05:27:01;;;;;;;191.33;54.90;;;;;;;;;;5051763;28;20920;-51
2023/08/02 05:29:27;;;;;;;193.27;56.10;;;;;;;;;;5051616;28;20574;-46
2023/08/02 05:31:53;;;;;;;191.77;55.40;;;;;;;;;;5051907;28;20407;-46
2023/08/02 05:34:19;;;;;;;192.67;56.27;;;;;;;;;;5051610;28;20411;-46
2023/08/02 05:36:45;;;;;;;192.97;55.97;;;;;;;;;;5051403;28;20468;-48
2023/08/02 05:39:10;;;;;;;191.00;54.57;;;;;;;;;;5051888;28;20904;-47
2023/08/02 05:41:36;;;;;;;190.60;54.20;;;;;;;;;;5051463;28;20998;-47
2023/08/02 05:44:02;;;;;;;192.40;55.83;;;;;;;;;;5051056;28;21027;-51
2023/08/02 05:46:29;;;;;;;201.73;63.63;;;;;;;;;;5042340;28;20455;-50
2023/08/02 05:48:55;;;;;;;193.45;56.80;;;;;;;;;;5046702;28;20433;-47
2023/08/02 05:51:22;;;;;;;191.50;55.20;;;;;;;;;;5050985;28;20682;-46
2023/08/02 05:53:48;;;;;;;192.23;55.45;;;;;;;;;;5051344;28;20507;-47
2023/08/02 05:56:14;;;;;;;195.05;57.38;;;;;;;;;;5055541;28;20627;-47
2023/08/02 05:58:40;;;;;;;193.23;57.38;;;;;;;;;;5049520;28;20202;-49
2023/08/02 06:01:06;;;;;;;194.67;58.03;;;;;;;;;;5049207;28;20231;-47
2023/08/02 06:03:32;;;;;;;191.47;56.03;;;;;;;;;;5049595;28;20419;-48
2023/08/02 06:05:58;;;;;;;194.67;57.50;;;;;;;;;;5044806;28;20477;-49
2023/08/02 06:08:24;;;;;;;189.40;53.53;;;;;;;;;;5050895;28;20425;-46
2023/08/02 06:10:50;;;;;;;190.10;54.53;;;;;;;;;;5050885;28;20437;-46
2023/08/02 06:13:16;;;;;;;193.67;56.27;;;;;;;;;;5051215;28;20413;-46
2023/08/02 06:15:42;;;;;;;192.60;55.67;;;;;;;;;;5051102;28;20497;-51
2023/08/02 06:18:08;;;;;;;194.20;57.60;;;;;;;;;;5051110;28;20420;-47
2023/08/02 06:20:34;;;;;;;192.97;58.17;;;;;;;;;;5051077;28;20519;-48
2023/08/02 06:23:00;;;;;;;192.97;55.80;;;;;;;;;;5051230;28;20400;-48
2023/08/02 06:25:27;;;;;;;190.90;54.60;;;;;;;;;;5049602;28;20909;-46
2023/08/02 06:27:53;;;;;;;192.38;55.85;;;;;;;;;;5051209;28;20495;-47
2023/08/02 06:30:19;;;;;;;195.57;57.63;;;;;;;;;;5051112;28;20278;-47
2023/08/02 06:32:44;;;;;;;192.53;56.00;;;;;;;;;;5054840;28;20272;-50
2023/08/02 06:35:11;;;;;;;192.07;55.50;;;;;;;;;;5055024;28;20459;-47
2023/08/02 06:37:37;;;;;;;193.13;56.03;;;;;;;;;;5054704;28;20408;-47
2023/08/02 06:40:03;;;;;;;192.97;56.10;;;;;;;;;;5052667;28;20698;-49
2023/08/02 06:42:30;;;;;;;192.45;56.08;;;;;;;;;;5053647;28;20416;-48
2023/08/02 06:44:57;;;;;;;194.65;58.42;;;;;;;;;;5054667;28;20631;-49
2023/08/02 06:47:23;;;;;;;193.90;57.10;;;;;;;;;;5054516;28;20645;-46
2023/08/02 06:49:49;;;;;;;193.17;56.23;;;;;;;;;;5054237;28;20215;-47
2023/08/02 06:52:16;;;;;;;191.10;54.40;;;;;;;;;;5053243;28;20410;-48
2023/08/02 06:54:42;;;;;;;189.93;54.58;;;;;;;;;;5054517;28;20405;-50
2023/08/02 06:57:08;;;;;;;190.73;55.27;;;;;;;;;;5054483;28;20225;-46
2023/08/02 06:59:35;;;;;;;194.15;57.97;;;;;;;;;;5054187;28;20435;-51
2023/08/02 07:02:01;;;;;;;189.33;54.30;;;;;;;;;;5054220;28;20250;-49
2023/08/02 07:04:27;;;;;;;192.40;55.70;;;;;;;;;;5054400;28;20398;-50
2023/08/02 07:06:53;;;;;;;189.93;53.43;;;;;;;;;;5052894;28;20416;-47
2023/08/02 07:09:19;;;;;;;191.83;55.83;;;;;;;;;;5054198;28;20459;-46
2023/08/02 07:11:45;;;;;;;192.67;56.67;;;;;;;;;;5054051;28;20444;-46
2023/08/02 07:14:11;;;;;;;195.03;57.87;;;;;;;;;;5054188;28;20424;-46
2023/08/02 07:16:37;;;;;;;192.70;56.37;;;;;;;;;;5053936;28;20508;-48
2023/08/02 07:19:03;;;;;;;193.37;56.17;;;;;;;;;;5054281;28;20405;-47
2023/08/02 07:21:29;;;;;;;192.63;55.57;;;;;;;;;;5052499;28;20468;-48
2023/08/02 07:23:55;;;;;;;192.35;55.35;;;;;;;;;;5054341;28;20469;-49
2023/08/02 07:26:24;;;;;;;193.77;56.63;;;;;;;;;;5053948;28;20312;-47
2023/08/02 07:28:50;;;;;;;193.68;56.08;;;;;;;;;;5053923;28;20175;-47
2023/08/02 07:31:16;;;;;;;194.32;57.92;;;;;;;;;;5053432;28;20204;-46
2023/08/02 07:33:45;;;;;;;191.20;55.07;;;;;;;;;;5052551;28;20176;-48
2023/08/02 07:36:14;;;;;;;192.35;55.65;;;;;;;;;;5051192;28;20469;-47
2023/08/02 07:38:41;;;;;;;193.80;56.28;;;;;;;;;;5042170;28;20170;-47
2023/08/02 07:41:07;;;;;;;193.52;58.53;;;;;;;;;;5053145;28;20196;-48
2023/08/02 07:43:33;;;;;;;195.27;58.97;;;;;;;;;;5053337;28;20179;-49
2023/08/02 07:45:59;;;;;;;193.40;57.50;;;;;;;;;;5053626;28;20901;-47
2023/08/02 07:48:25;;;;;;;191.33;55.17;;;;;;;;;;5048244;28;20194;-47
2023/08/02 07:50:51;;;;;;;192.93;56.05;;;;;;;;;;5053106;28;20941;-49
2023/08/02 07:53:17;;;;;;;190.63;54.97;;;;;;;;;;5053435;28;20266;-51
2023/08/02 07:55:43;;;;;;;191.97;54.97;;;;;;;;;;5053434;28;20472;-47
2023/08/02 07:58:09;;;;;;;194.30;57.40;;;;;;;;;;5047813;28;20415;-46
2023/08/02 08:00:35;;;;;;;193.13;56.07;;;;;;;;;;5052706;28;20421;-46
2023/08/02 08:03:03;;;;;;;192.87;57.80;;;;;;;;;;5053318;28;20403;-46
2023/08/02 08:05:29;;;;;;;192.13;56.17;;;;;;;;;;5052263;28;20845;-46
2023/08/02 08:07:55;;;;;;;192.15;56.30;;;;;;;;;;5053265;28;20262;-46
2023/08/02 08:10:21;;;;;;;192.63;57.90;;;;;;;;;;5052771;28;20222;-46
2023/08/02 08:12:47;;;;;;;193.00;58.40;;;;;;;;;;5053423;28;20923;-47
2023/08/02 08:15:13;;;;;;;194.10;56.97;;;;;;;;;;5052912;28;20465;-51
2023/08/02 08:17:39;;;;;;;194.68;57.47;;;;;;;;;;5052256;28;20500;-51
2023/08/02 08:20:06;;;;;;;196.27;58.37;;;;;;;;;;5052971;28;20273;-47
2023/08/02 08:22:32;;;;;;;195.18;58.55;;;;;;;;;;5052936;28;20401;-50
2023/08/02 08:24:58;;;;;;;195.80;59.15;;;;;;;;;;5052793;28;20709;-50
2023/08/02 08:27:24;;;;;;;194.43;57.33;;;;;;;;;;5052594;28;20252;-49
2023/08/02 08:29:50;;;;;;;199.93;62.63;;;;;;;;;;5052488;28;20286;-51
2023/08/02 08:32:16;;;;;;;198.97;61.13;;;;;;;;;;5051866;28;20416;-46
2023/08/02 08:34:43;;;;;;;193.95;55.65;;;;;;;;;;5052402;28;20937;-46
2023/08/02 08:37:09;;;;;;;195.05;57.55;;;;;;;;;;5052690;28;20243;-47
2023/08/02 08:39:38;;;;;;;196.80;57.55;;;;;;;;;;5046229;28;20265;-46
2023/08/02 08:42:08;;;;;;;194.80;56.50;;;;;;;;;;5052533;28;20214;-46
2023/08/02 08:44:37;;;;;;;196.18;58.75;;;;;;;;;;5051164;28;20245;-47
2023/08/02 08:47:04;;;;;;;194.47;56.67;;;;;;;;;;5052504;28;20181;-49
2023/08/02 08:49:30;;;;;;;196.57;58.30;;;;;;;;;;5052472;28;20753;-51
2023/08/02 08:51:58;;;;;;;194.93;58.17;;;;;;;;;;5052330;28;20481;-47
2023/08/02 08:54:27;;;;;;;194.97;56.57;;;;;;;;;;5051604;28;20420;-46
2023/08/02 08:56:53;;;;;;;195.18;58.28;;;;;;;;;;5052490;28;20827;-46
2023/08/02 08:59:20;;;;;;;196.68;58.97;;;;;;;;;;5050781;28;20172;-47
2023/08/02 09:01:46;;;;;;;192.35;55.80;;;;;;;;;;5052324;28;20172;-46
2023/08/02 09:04:12;;;;;;;194.02;55.90;;;;;;;;;;5052341;28;20244;-47
2023/08/02 09:06:38;;;;;;;193.05;55.05;;;;;;;;;;5051077;28;20670;-46
2023/08/02 09:09:04;;;;;;;194.60;57.70;;;;;;;;;;5051924;28;20185;-49
2023/08/02 09:11:30;;;;;;;195.90;59.90;;;;;;;;;;5051960;28;20435;-47
2023/08/02 09:14:12;;;;;;;196.63;59.35;;;;;;;;;;5051980;28;20183;-50
2023/08/02 09:16:57;;;;;;;194.40;56.65;;;;;;;;;;5052006;28;20204;-51
2023/08/02 09:19:27;;;;;;;197.67;58.47;;;;;;;;;;5051820;28;20169;-48
2023/08/02 09:22:08;;;;;;;195.23;58.22;;;;;;;;;;5051784;28;20398;-48
2023/08/02 09:24:38;;;;;;;198.15;60.80;;;;;;;;;;5051851;28;20179;-47
2023/08/02 09:27:05;;;;;;;195.57;57.97;;;;;;;;;;5051992;28;20180;-46
2023/08/02 09:29:47;;;;;;;198.15;59.38;;;;;;;;;;5051681;28;20411;-47
2023/08/02 09:32:14;;;;;;;194.37;56.27;;;;;;;;;;5051806;28;20204;-47
2023/08/02 09:34:44;;;;;;;196.37;58.93;;;;;;;;;;5051654;28;20512;-47
2023/08/02 09:37:11;;;;;;;194.60;57.70;;;;;;;;;;5051557;28;20555;-46
2023/08/02 09:39:37;;;;;;;196.17;59.60;;;;;;;;;;5051204;28;20519;-52
2023/08/02 09:42:12;;;;;;;195.40;58.63;;;;;;;;;;5051719;28;20829;-49
2023/08/02 09:44:39;;;;;;;196.60;59.30;;;;;;;;;;5051529;28;20406;-47
2023/08/02 09:47:09;;;;;;;197.30;59.00;;;;;;;;;;5031875;28;20432;-49
2023/08/02 09:49:35;;;;;;;196.93;59.97;;;;;;;;;;5048808;28;20797;-50
2023/08/02 09:52:01;;;;;;;196.27;58.97;;;;;;;;;;5051511;28;20511;-48
2023/08/02 09:54:29;;;;;;;198.33;61.57;;;;;;;;;;5051425;28;20417;-47
2023/08/02 09:56:55;;;;;;;195.80;58.20;;;;;;;;;;5051185;28;20472;-46
2023/08/02 09:59:21;;;;;;;199.67;63.47;;;;;;;;;;5051269;28;20416;-47
2023/08/02 10:01:48;;;;;;;195.23;57.77;;;;;;;;;;5051885;28;20425;-48
2023/08/02 10:04:14;;;;;;;195.53;58.97;;;;;;;;;;5051836;28;20400;-49
2023/08/02 10:06:47;;;;;;;198.13;61.27;;;;;;;;;;5055607;28;20422;-48
2023/08/02 10:09:18;;;;;;;196.17;58.90;;;;;;;;;;5055550;28;20503;-48
2023/08/02 10:11:48;;;;;;;196.80;59.38;;;;;;;;;;5055139;28;20426;-49
2023/08/02 10:14:14;;;;;;;198.67;61.60;;;;;;;;;;5055597;28;20193;-49
2023/08/02 10:16:41;;;;;;;196.73;58.97;;;;;;;;;;5055445;28;20463;-48
2023/08/02 10:19:07;;;;;;;196.90;60.43;;;;;;;;;;5054403;28;20210;-52
2023/08/02 10:21:35;;;;;;;198.03;61.03;;;;;;;;;;5056610;28;20512;-48
2023/08/02 10:24:01;;;;;;;206.87;68.70;;;;;;;;;;5059832;28;20421;-50
2023/08/02 10:26:29;;;;;;;196.50;59.30;;;;;;;;;;5035419;28;20405;-49
2023/08/02 10:28:55;;;;;;;198.63;62.40;;;;;;;;;;5053344;28;20175;-48
2023/08/02 10:31:21;;;;;;;197.07;59.57;;;;;;;;;;5054646;28;20442;-48
2023/08/02 10:33:47;;;;;;;196.23;59.47;;;;;;;;;;5054979;28;20413;-50
2023/08/02 10:36:13;;;;;;;195.30;58.10;;;;;;;;;;5052206;28;20485;-52
2023/08/02 10:38:39;;;;;;;199.07;61.47;;;;;;;;;;5049361;28;20507;-48
2023/08/02 10:41:13;;;;;;;198.27;61.13;;;;;;;;;;5047422;28;20799;-48
2023/08/02 10:43:51;;;;;;;198.07;60.70;;;;;;;;;;5053821;28;20950;-50
2023/08/02 10:46:18;;;;;;;195.70;61.77;;;;;;;;;;5054765;28;20416;-48
2023/08/02 10:48:44;;;;;;;198.00;61.10;;;;;;;;;;5054764;28;20978;-48
2023/08/02 10:51:30;;;;;;;197.40;59.77;;;;;;;;;;5054591;28;20454;-48
2023/08/02 10:54:14;;;;;;;199.40;62.23;;;;;;;;;;5034464;28;20441;-48
2023/08/02 10:56:49;;;;;;;198.37;60.50;;;;;;;;;;5050637;28;20463;-48
2023/08/02 10:59:15;;;;;;;199.97;64.27;;;;;;;;;;5054382;28;20415;-49
2023/08/02 11:01:57;;;;;;;196.47;60.00;;;;;;;;;;5051312;28;20443;-48
2023/08/02 11:04:24;;;;;;;198.83;63.03;;;;;;;;;;5054342;28;20445;-48
2023/08/02 11:06:50;;;;;;;198.87;61.97;;;;;;;;;;5054619;28;20417;-48
2023/08/02 11:09:16;;;;;;;198.17;60.70;;;;;;;;;;5054407;28;20497;-48
2023/08/02 11:11:42;;;;;;;200.03;62.17;;;;;;;;;;5052861;28;20566;-48
2023/08/02 11:14:08;;;;;;;197.10;59.23;;;;;;;;;;5054004;28;20405;-49
2023/08/02 11:16:43;;;;;;;200.43;61.23;;;;;;;;;;5053958;28;20561;-48
2023/08/02 11:19:13;;;;;;;202.30;62.65;;;;;;;;;;5054167;28;20409;-48
2023/08/02 11:21:51;;;;;;;200.93;61.28;;;;;;;;;;5041035;28;20199;-48
2023/08/02 11:24:17;;;;;;;202.17;65.97;;;;;;;;;;5039298;28;20251;-49
2023/08/02 11:26:43;;;;;;;203.43;67.23;;;;;;;;;;5043819;28;20933;-48
2023/08/02 11:29:10;;;;;;;204.40;66.63;;;;;;;;;;5054025;28;20415;-48
2023/08/02 11:31:36;;;;;;;202.73;65.53;;;;;;;;;;5044991;28;20580;-48
2023/08/02 11:34:04;;;;;;;201.20;64.80;;;;;;;;;;5053953;28;20443;-49
2023/08/02 11:36:33;;;;;;;201.17;67.00;;;;;;;;;;5053844;28;20950;-48
2023/08/02 11:39:00;;;;;;;202.50;65.80;;;;;;;;;;5053440;28;20776;-52
2023/08/02 11:41:26;;;;;;;200.37;63.50;;;;;;;;;;5051745;28;20470;-48
2023/08/02 11:43:52;;;;;;;202.60;67.03;;;;;;;;;;5053540;28;20431;-49
2023/08/02 11:46:23;;;;;;;201.13;64.20;;;;;;;;;;5053569;28;20420;-48
2023/08/02 11:48:49;;;;;;;203.77;68.57;;;;;;;;;;5051637;28;20453;-50
2023/08/02 11:51:19;;;;;;;201.50;66.33;;;;;;;;;;5049925;28;20916;-48
2023/08/02 11:53:52;;;;;;;201.47;65.47;;;;;;;;;;5053213;28;20406;-49
2023/08/02 11:56:19;;;;;;;206.60;73.33;;;;;;;;;;5050683;28;20972;-50
2023/08/02 11:58:45;;;;;;;201.90;65.77;;;;;;;;;;5053366;28;20905;-48
2023/08/02 12:01:15;;;;;;;202.83;66.63;;;;;;;;;;5036135;28;20798;-51
2023/08/02 12:03:57;;;;;;;204.40;69.73;;;;;;;;;;5047759;28;20420;-48
2023/08/02 12:06:23;;;;;;;202.57;66.77;;;;;;;;;;5052110;28;20512;-48
2023/08/02 12:09:00;;;;;;;199.73;63.93;;;;;;;;;;5053327;28;20416;-48
2023/08/02 12:11:26;;;;;;;203.53;68.67;;;;;;;;;;5052973;28;20433;-48
2023/08/02 12:13:52;;;;;;;201.97;66.57;;;;;;;;;;5053218;28;20413;-48
2023/08/02 12:16:20;;;;;;;202.07;66.93;;;;;;;;;;5045884;28;20464;-48
2023/08/02 12:18:56;;;;;;;201.50;65.93;;;;;;;;;;5052901;28;20453;-50
2023/08/02 12:21:23;;;;;;;201.70;66.32;;;;;;;;;;5052057;28;20452;-48
2023/08/02 12:23:49;;;;;;;202.37;67.83;;;;;;;;;;5051882;28;20178;-48
2023/08/02 12:26:28;;;;;;;200.07;64.37;;;;;;;;;;5052073;28;20424;-48
2023/08/02 12:28:54;;;;;;;202.83;67.00;;;;;;;;;;5050776;28;20451;-49
2023/08/02 12:31:20;;;;;;;201.70;65.27;;;;;;;;;;5045280;28;20957;-50
2023/08/02 12:33:46;;;;;;;201.23;66.17;;;;;;;;;;5043083;28;20419;-48
2023/08/02 12:36:23;;;;;;;202.83;66.53;;;;;;;;;;5050718;28;20838;-48
2023/08/02 12:38:49;;;;;;;201.63;67.40;;;;;;;;;;5042058;28;20823;-48
2023/08/02 12:41:15;;;;;;;199.97;63.67;;;;;;;;;;5048737;28;20471;-48
2023/08/02 12:43:41;;;;;;;203.13;67.10;;;;;;;;;;5052354;28;20412;-49
2023/08/02 12:46:07;;;;;;;204.13;68.17;;;;;;;;;;5051536;28;20415;-48
2023/08/02 12:48:33;;;;;;;201.57;64.40;;;;;;;;;;5049340;28;20948;-48
2023/08/02 12:50:59;;;;;;;201.37;66.90;;;;;;;;;;5046127;28;20831;-48
2023/08/02 12:53:25;;;;;;;205.80;72.57;;;;;;;;;;5043431;28;20445;-48
2023/08/02 12:55:51;;;;;;;201.63;66.93;;;;;;;;;;5052294;28;20456;-49
2023/08/02 12:58:17;;;;;;;203.70;68.77;;;;;;;;;;5050090;28;20412;-49
2023/08/02 13:00:44;;;;;;;201.23;65.23;;;;;;;;;;5049680;28;20448;-49
2023/08/02 13:03:10;;;;;;;201.13;65.50;;;;;;;;;;5048850;28;20512;-48
2023/08/02 13:05:36;;;;;;;201.07;65.73;;;;;;;;;;5048224;28;20425;-48
2023/08/02 13:08:02;;;;;;;202.10;66.97;;;;;;;;;;5045200;28;20416;-48
2023/08/02 13:10:28;;;;;;;200.40;64.23;;;;;;;;;;5051147;28;20439;-48
2023/08/02 13:12:55;;;;;;;200.43;64.67;;;;;;;;;;5052139;28;20405;-48
2023/08/02 13:15:21;;;;;;;201.15;64.18;;;;;;;;;;5047611;28;20433;-49
2023/08/02 13:17:48;;;;;;;198.43;61.27;;;;;;;;;;5051886;28;20171;-49
2023/08/02 13:20:14;;;;;;;202.33;64.63;;;;;;;;;;5051707;28;20425;-50
2023/08/02 13:22:40;;;;;;;200.37;61.83;;;;;;;;;;5051915;28;20992;-49
2023/08/02 13:25:07;;;;;;;198.77;61.33;;;;;;;;;;5050458;28;20846;-50
2023/08/02 13:27:35;;;;;;;201.93;64.60;;;;;;;;;;5047551;28;20212;-48
2023/08/02 13:30:02;;;;;;;200.97;63.37;;;;;;;;;;5042413;28;20203;-48
2023/08/02 13:32:29;;;;;;;198.77;60.80;;;;;;;;;;5039148;28;20420;-48
2023/08/02 13:34:55;;;;;;;199.10;61.93;;;;;;;;;;5051532;28;20181;-48
2023/08/02 13:37:21;;;;;;;207.87;68.43;;;;;;;;;;5049566;28;20449;-49
2023/08/02 13:39:47;;;;;;;200.20;62.57;;;;;;;;;;5051235;28;20817;-49
2023/08/02 13:42:13;;;;;;;200.40;63.70;;;;;;;;;;5034232;28;20422;-48
2023/08/02 13:44:39;;;;;;;200.60;62.27;;;;;;;;;;5051645;28;20504;-49
2023/08/02 13:47:06;;;;;;;201.33;65.77;;;;;;;;;;5051570;28;20417;-49
2023/08/02 13:49:32;;;;;;;203.23;67.37;;;;;;;;;;5047147;28;20840;-48
2023/08/02 13:51:58;;;;;;;199.13;64.37;;;;;;;;;;5051195;28;20417;-49
2023/08/02 13:54:24;;;;;;;201.73;65.60;;;;;;;;;;5051475;28;20778;-50
2023/08/02 13:56:50;;;;;;;202.40;65.57;;;;;;;;;;5051643;28;20930;-51
2023/08/02 13:59:16;;;;;;;198.87;63.13;;;;;;;;;;5035685;28;20516;-48
2023/08/02 14:01:42;;;;;;;200.37;64.63;;;;;;;;;;5040096;28;20441;-48